createdAt,value
2023-02-15T00:01:49.899Z,64.93
2023-02-15T00:04:20.343Z,64.99
2023-02-15T00:06:46.988Z,64.26
2023-02-15T00:09:14.258Z,63.73
2023-02-15T00:11:41.126Z,64.50
2023-02-15T00:14:10.704Z,64.64
2023-02-15T00:16:38.769Z,64.27
2023-02-15T00:19:06.120Z,64.84
2023-02-15T00:21:34.012Z,64.21
2023-02-15T00:24:02.597Z,64.13
2023-02-15T00:26:30.225Z,63.84
2023-02-15T00:28:59.482Z,63.28
2023-02-15T00:31:28.700Z,63.48
2023-02-15T00:33:56.223Z,63.00
2023-02-15T00:36:22.879Z,62.61
2023-02-15T00:38:49.648Z,62.34
2023-02-15T00:41:17.196Z,62.46
2023-02-15T00:43:43.837Z,62.25
2023-02-15T00:46:10.684Z,61.92
2023-02-15T00:48:39.956Z,62.00
2023-02-15T00:51:06.957Z,62.25
2023-02-15T00:53:33.828Z,62.02
2023-02-15T00:56:01.021Z,61.61
2023-02-15T00:58:27.889Z,62.15
2023-02-15T01:00:54.638Z,62.22
2023-02-15T01:03:23.804Z,62.51
2023-02-15T01:05:50.669Z,62.82
2023-02-15T01:08:17.489Z,63.09
2023-02-15T01:10:46.770Z,63.10
2023-02-15T01:13:14.680Z,63.33
2023-02-15T01:15:43.973Z,63.33
2023-02-15T01:18:11.692Z,64.08
2023-02-15T01:20:42.030Z,64.20
2023-02-15T01:23:09.756Z,64.57
2023-02-15T01:25:37.375Z,64.61
2023-02-15T01:28:04.493Z,64.51
2023-02-15T01:30:33.427Z,64.61
2023-02-15T01:33:01.651Z,65.00
2023-02-15T01:35:31.242Z,64.65
2023-02-15T01:37:57.902Z,64.61
2023-02-15T01:40:26.134Z,64.57
2023-02-15T01:42:54.323Z,64.54
2023-02-15T01:45:32.191Z,64.47
2023-02-15T01:48:07.205Z,64.61
2023-02-15T01:50:41.938Z,64.79
2023-02-15T01:53:33.289Z,65.08
2023-02-15T01:56:05.103Z,65.65
2023-02-15T01:58:34.777Z,65.51
2023-02-15T02:01:04.899Z,65.48
2023-02-15T02:03:50.511Z,65.29
2023-02-15T02:06:18.376Z,65.17
2023-02-15T02:08:45.627Z,65.10
2023-02-15T02:11:13.882Z,64.51
2023-02-15T02:13:42.624Z,64.51
2023-02-15T02:16:25.795Z,64.48
2023-02-15T02:19:20.977Z,64.56
2023-02-15T02:22:05.858Z,64.37
2023-02-15T02:24:48.258Z,64.82
2023-02-15T02:27:31.132Z,65.07
2023-02-15T02:30:25.355Z,65.32
2023-02-15T02:33:14.092Z,64.86
2023-02-15T02:36:03.843Z,64.78
2023-02-15T02:38:45.236Z,64.80
2023-02-15T02:41:23.675Z,65.00
2023-02-15T02:44:13.267Z,64.83
2023-02-15T02:46:39.922Z,64.57
2023-02-15T02:49:06.671Z,64.45
2023-02-15T02:51:33.451Z,64.82
2023-02-15T02:54:04.467Z,64.75
2023-02-15T02:56:48.412Z,64.71
2023-02-15T02:59:21.630Z,64.87
2023-02-15T03:01:54.235Z,64.81
2023-02-15T03:04:29.644Z,64.98
2023-02-15T03:07:03.747Z,64.97
2023-02-15T03:09:43.823Z,65.03
2023-02-15T03:12:28.288Z,65.04
2023-02-15T03:15:06.007Z,65.38
2023-02-15T03:17:34.802Z,65.01
2023-02-15T03:20:08.226Z,65.58
2023-02-15T03:22:40.424Z,65.89
2023-02-15T03:25:20.579Z,64.96
2023-02-15T03:27:52.191Z,64.82
2023-02-15T03:30:22.803Z,65.10
2023-02-15T03:32:51.836Z,64.80
2023-02-15T03:35:24.063Z,64.30
2023-02-15T03:38:02.598Z,63.88
2023-02-15T03:40:51.474Z,63.48
2023-02-15T03:43:39.879Z,63.59
2023-02-15T03:46:21.628Z,64.08
2023-02-15T03:48:54.185Z,63.73
2023-02-15T03:51:37.216Z,63.48
2023-02-15T03:54:44.881Z,63.84
2023-02-15T03:57:41.484Z,64.04
2023-02-15T04:00:41.076Z,64.24
2023-02-15T04:03:20.955Z,64.72
2023-02-15T04:05:47.641Z,64.76
2023-02-15T04:08:14.501Z,65.38
2023-02-15T04:10:53.212Z,65.42
2023-02-15T04:13:21.226Z,65.31
2023-02-15T04:16:07.046Z,65.06
2023-02-15T04:18:58.020Z,65.20
2023-02-15T04:21:45.011Z,66.05
2023-02-15T04:24:31.325Z,66.00
2023-02-15T04:26:58.999Z,65.28
2023-02-15T04:29:26.510Z,64.98
2023-02-15T04:31:55.060Z,65.55
2023-02-15T04:34:22.131Z,64.80
2023-02-15T04:36:48.844Z,64.66
2023-02-15T04:39:16.324Z,64.81
2023-02-15T04:41:43.475Z,64.77
2023-02-15T04:44:10.540Z,64.89
2023-02-15T04:46:37.923Z,64.98
2023-02-15T04:49:05.000Z,64.66
2023-02-15T04:51:31.744Z,64.44
2023-02-15T04:53:58.420Z,64.37
2023-02-15T04:56:25.230Z,64.38
2023-02-15T04:58:51.953Z,63.99
2023-02-15T05:01:18.830Z,64.03
2023-02-15T05:03:45.532Z,64.27
2023-02-15T05:06:12.220Z,64.69
2023-02-15T05:08:38.845Z,64.53
2023-02-15T05:11:05.492Z,64.59
2023-02-15T05:13:32.192Z,64.93
2023-02-15T05:15:58.949Z,65.05
2023-02-15T05:18:25.810Z,65.45
2023-02-15T05:20:52.555Z,64.65
2023-02-15T05:23:19.285Z,64.84
2023-02-15T05:26:08.785Z,64.26
2023-02-15T05:28:36.809Z,64.32
2023-02-15T05:31:08.445Z,64.24
2023-02-15T05:33:35.364Z,64.31
2023-02-15T05:36:03.337Z,64.69
2023-02-15T05:38:30.467Z,64.63
2023-02-15T05:40:57.724Z,64.51
2023-02-15T05:43:25.286Z,65.59
2023-02-15T05:45:53.903Z,65.32
2023-02-15T05:48:23.224Z,65.49
2023-02-15T05:51:04.768Z,65.33
2023-02-15T05:53:33.770Z,64.85
2023-02-15T05:56:01.624Z,64.33
2023-02-15T05:58:37.766Z,64.09
2023-02-15T06:01:18.427Z,64.61
2023-02-15T06:03:46.527Z,64.63
2023-02-15T06:06:13.527Z,63.89
2023-02-15T06:08:40.373Z,64.24
2023-02-15T06:11:07.853Z,63.89
2023-02-15T06:13:38.330Z,63.72
2023-02-15T06:16:06.589Z,64.72
2023-02-15T06:18:33.602Z,64.50
2023-02-15T06:21:00.491Z,64.94
2023-02-15T06:23:27.196Z,64.24
2023-02-15T06:25:54.260Z,63.77
2023-02-15T06:28:21.094Z,63.95
2023-02-15T06:30:47.957Z,64.32
2023-02-15T06:33:14.726Z,65.01
2023-02-15T06:35:41.489Z,64.27
2023-02-15T06:38:08.661Z,64.38
2023-02-15T06:40:35.339Z,64.71
2023-02-15T06:43:01.993Z,65.13
2023-02-15T06:45:28.760Z,64.73
2023-02-15T06:47:55.433Z,64.70
2023-02-15T06:50:22.274Z,64.59
2023-02-15T06:52:49.018Z,64.57
2023-02-15T06:55:15.810Z,64.66
2023-02-15T06:57:42.555Z,65.01
2023-02-15T07:00:09.876Z,64.99
2023-02-15T07:02:36.520Z,65.81
2023-02-15T07:05:05.102Z,65.80
2023-02-15T07:07:31.767Z,65.58
2023-02-15T07:09:58.430Z,65.38
2023-02-15T07:12:43.531Z,65.01
2023-02-15T07:15:16.150Z,65.11
2023-02-15T07:17:43.634Z,64.47
2023-02-15T07:20:12.053Z,64.69
2023-02-15T07:22:39.110Z,64.63
2023-02-15T07:25:08.220Z,65.23
2023-02-15T07:27:35.186Z,64.75
2023-02-15T07:30:02.259Z,65.64
2023-02-15T07:32:33.117Z,65.36
2023-02-15T07:35:00.815Z,65.21
2023-02-15T07:37:28.667Z,64.49
2023-02-15T07:39:55.367Z,64.52
2023-02-15T07:42:22.989Z,64.02
2023-02-15T07:44:50.010Z,64.20
2023-02-15T07:47:16.745Z,63.36
2023-02-15T07:49:43.431Z,64.07
2023-02-15T07:52:10.219Z,64.00
2023-02-15T07:54:36.849Z,64.04
2023-02-15T07:57:03.596Z,63.79
2023-02-15T07:59:30.269Z,63.37
2023-02-15T08:01:58.105Z,63.17
2023-02-15T08:04:25.104Z,63.06
2023-02-15T08:06:55.099Z,63.29
2023-02-15T08:09:22.634Z,63.45
2023-02-15T08:11:49.528Z,62.49
2023-02-15T08:14:21.335Z,62.98
2023-02-15T08:16:48.241Z,62.54
2023-02-15T08:19:25.558Z,62.60
2023-02-15T08:21:54.821Z,62.87
2023-02-15T08:24:23.892Z,62.30
2023-02-15T08:26:51.756Z,62.80
2023-02-15T08:29:21.071Z,62.89
2023-02-15T08:31:48.796Z,62.70
2023-02-15T08:34:18.570Z,62.77
2023-02-15T08:36:48.618Z,63.15
2023-02-15T08:39:16.817Z,62.99
2023-02-15T08:41:46.341Z,62.60
2023-02-15T08:44:13.679Z,62.53
2023-02-15T08:46:42.922Z,62.84
2023-02-15T08:49:11.096Z,62.12
2023-02-15T08:51:39.568Z,62.47
2023-02-15T08:54:10.276Z,61.51
2023-02-15T08:56:39.233Z,60.82
2023-02-15T08:59:07.693Z,61.20
2023-02-15T09:01:35.857Z,60.71
2023-02-15T09:04:09.589Z,60.84
2023-02-15T09:06:40.659Z,60.62
2023-02-15T09:09:08.682Z,59.90
2023-02-15T09:11:38.666Z,59.34
2023-02-15T09:14:10.006Z,58.69
2023-02-15T09:16:38.639Z,55.51
2023-02-15T09:19:06.326Z,52.57
2023-02-15T09:21:36.013Z,50.08
2023-02-15T09:24:08.969Z,48.90
2023-02-15T09:26:38.248Z,47.26
2023-02-15T09:29:05.072Z,45.55
2023-02-15T09:31:45.218Z,43.12
2023-02-15T09:34:14.332Z,39.25
2023-02-15T09:36:42.182Z,34.30
2023-02-15T09:39:13.629Z,29.98
2023-02-15T09:41:52.678Z,27.17
2023-02-15T09:44:40.673Z,26.52
2023-02-15T09:47:18.934Z,27.07
2023-02-15T09:50:20.862Z,30.35
2023-02-15T09:53:00.121Z,35.12
2023-02-15T09:55:48.724Z,36.01
2023-02-15T09:58:33.410Z,36.49
2023-02-15T10:01:22.687Z,35.91
2023-02-15T10:04:23.555Z,35.90
2023-02-15T10:07:05.267Z,33.98
2023-02-15T10:09:32.255Z,31.84
2023-02-15T10:12:30.201Z,29.21
2023-02-15T10:14:59.554Z,26.77
2023-02-15T10:17:45.233Z,26.25
2023-02-15T10:20:37.188Z,23.90
2023-02-15T10:23:12.482Z,23.45
2023-02-15T10:25:58.917Z,22.25
2023-02-15T10:28:40.846Z,21.26
2023-02-15T10:31:22.106Z,21.95
2023-02-15T10:33:56.230Z,22.26
2023-02-15T10:36:55.274Z,19.58
2023-02-15T10:39:43.712Z,20.51
2023-02-15T10:42:53.097Z,20.38
2023-02-15T10:45:41.152Z,20.83
2023-02-15T10:48:23.214Z,20.67
2023-02-15T10:50:53.652Z,20.84
2023-02-15T10:53:27.354Z,20.18
2023-02-15T10:56:08.191Z,20.07
2023-02-15T10:58:46.823Z,20.10
2023-02-15T11:01:23.599Z,19.83
2023-02-15T11:04:08.885Z,18.75
2023-02-15T11:06:40.629Z,19.37
2023-02-15T11:09:13.967Z,18.02
2023-02-15T11:11:44.650Z,17.35
2023-02-15T11:14:14.099Z,18.22
2023-02-15T11:16:47.365Z,17.61
2023-02-15T11:19:17.050Z,17.99
2023-02-15T11:21:50.774Z,17.94
2023-02-15T11:24:23.478Z,17.96
2023-02-15T11:27:13.464Z,18.84
2023-02-15T11:29:49.948Z,19.38
2023-02-15T11:32:30.712Z,18.51
2023-02-15T11:35:06.349Z,18.30
2023-02-15T11:37:54.551Z,17.25
2023-02-15T11:40:25.753Z,16.56
2023-02-15T11:42:57.003Z,16.99
2023-02-15T11:45:32.387Z,17.45
2023-02-15T11:48:00.382Z,17.00
2023-02-15T11:50:31.695Z,17.29
2023-02-15T11:53:04.690Z,17.23
2023-02-15T11:55:31.982Z,16.79
2023-02-15T11:58:05.680Z,17.00
2023-02-15T12:00:40.290Z,16.10
2023-02-15T12:03:21.417Z,15.88
2023-02-15T12:05:54.407Z,16.13
2023-02-15T12:08:22.654Z,15.83
2023-02-15T12:11:03.997Z,16.75
2023-02-15T12:13:31.138Z,16.65
2023-02-15T12:16:00.353Z,16.96
2023-02-15T12:18:45.216Z,16.63
2023-02-15T12:21:29.395Z,18.20
2023-02-15T12:24:05.048Z,18.62
2023-02-15T12:26:35.471Z,18.30
2023-02-15T12:29:13.652Z,19.54
2023-02-15T12:31:44.588Z,20.70
2023-02-15T12:34:40.542Z,22.08
2023-02-15T12:37:29.406Z,22.43
2023-02-15T12:39:58.774Z,23.47
2023-02-15T12:42:27.066Z,25.05
2023-02-15T12:44:53.835Z,26.18
2023-02-15T12:47:21.526Z,26.63
2023-02-15T12:50:12.609Z,27.85
2023-02-15T12:52:40.162Z,27.94
2023-02-15T12:55:33.055Z,28.59
2023-02-15T12:58:21.487Z,29.29
2023-02-15T13:00:48.440Z,29.46
2023-02-15T13:03:24.924Z,29.84
2023-02-15T13:05:57.675Z,30.16
2023-02-15T13:08:53.806Z,30.12
2023-02-15T13:11:25.749Z,30.47
2023-02-15T13:13:56.902Z,30.61
2023-02-15T13:16:36.427Z,31.46
2023-02-15T13:19:11.315Z,31.11
2023-02-15T13:21:41.104Z,31.18
2023-02-15T13:24:25.169Z,31.39
2023-02-15T13:27:03.513Z,31.56
2023-02-15T13:29:40.815Z,30.96
2023-02-15T13:32:26.896Z,31.39
2023-02-15T13:34:57.981Z,31.82
2023-02-15T13:37:48.117Z,30.96
2023-02-15T13:40:33.830Z,30.90
2023-02-15T13:43:03.135Z,30.99
2023-02-15T13:45:54.401Z,31.18
2023-02-15T13:48:50.849Z,31.35
2023-02-15T13:51:39.006Z,31.46
2023-02-15T13:54:30.360Z,31.92
2023-02-15T13:57:15.751Z,31.43
2023-02-15T14:00:05.630Z,32.48
2023-02-15T14:02:55.317Z,32.41
2023-02-15T14:05:23.587Z,32.77
2023-02-15T14:08:09.800Z,32.96
2023-02-15T14:11:09.342Z,32.57
2023-02-15T14:14:11.526Z,32.72
2023-02-15T14:17:16.155Z,32.31
2023-02-15T14:19:52.741Z,32.33
2023-02-15T14:22:25.997Z,32.71
2023-02-15T14:25:06.367Z,32.72
2023-02-15T14:27:53.874Z,32.98
2023-02-15T14:30:27.602Z,33.01
2023-02-15T14:33:00.680Z,33.41
2023-02-15T14:35:30.162Z,33.26
2023-02-15T14:38:13.055Z,33.98
2023-02-15T14:41:05.021Z,33.97
2023-02-15T14:43:57.069Z,34.40
2023-02-15T14:46:37.604Z,34.29
2023-02-15T14:49:15.098Z,34.77
2023-02-15T14:51:44.808Z,34.87
2023-02-15T14:54:18.281Z,34.18
2023-02-15T14:56:46.037Z,33.95
2023-02-15T14:59:12.651Z,34.17
2023-02-15T15:01:40.719Z,34.11
2023-02-15T15:04:12.758Z,34.11
2023-02-15T15:06:43.168Z,34.08
2023-02-15T15:09:43.181Z,34.77
2023-02-15T15:12:21.823Z,35.32
2023-02-15T15:14:51.723Z,35.72
2023-02-15T15:17:33.508Z,35.57
2023-02-15T15:20:08.352Z,35.75
2023-02-15T15:22:35.929Z,36.03
2023-02-15T15:25:05.698Z,35.99
2023-02-15T15:27:55.052Z,36.25
2023-02-15T15:30:21.872Z,36.68
2023-02-15T15:32:54.689Z,36.42
2023-02-15T15:35:33.389Z,36.40
2023-02-15T15:38:22.380Z,37.33
2023-02-15T15:41:16.190Z,36.32
2023-02-15T15:44:01.266Z,36.44
2023-02-15T15:46:42.954Z,36.90
2023-02-15T15:49:18.809Z,37.05
2023-02-15T15:51:46.897Z,37.24
2023-02-15T15:54:16.485Z,37.22
2023-02-15T15:56:48.059Z,37.10
2023-02-15T15:59:21.130Z,37.56
2023-02-15T16:01:48.945Z,38.78
2023-02-15T16:04:26.311Z,38.90
2023-02-15T16:06:53.441Z,38.53
2023-02-15T16:09:21.616Z,39.24
2023-02-15T16:11:51.509Z,39.05
2023-02-15T16:14:32.238Z,38.59
2023-02-15T16:17:02.002Z,39.12
2023-02-15T16:19:33.406Z,39.90
2023-02-15T16:22:02.020Z,39.83
2023-02-15T16:24:47.062Z,40.00
2023-02-15T16:27:44.545Z,40.48
2023-02-15T16:30:39.455Z,40.57
2023-02-15T16:33:15.601Z,39.86
2023-02-15T16:35:57.210Z,40.39
2023-02-15T16:38:48.358Z,40.06
2023-02-15T16:41:18.367Z,41.27
2023-02-15T16:43:48.497Z,40.83
2023-02-15T16:46:29.507Z,41.36
2023-02-15T16:49:00.033Z,41.72
2023-02-15T16:51:29.505Z,41.62
2023-02-15T16:53:58.535Z,41.49
2023-02-15T16:56:29.373Z,41.92
2023-02-15T16:58:57.473Z,42.12
2023-02-15T17:01:27.239Z,41.99
2023-02-15T17:04:13.308Z,42.43
2023-02-15T17:06:40.027Z,42.49
2023-02-15T17:09:19.260Z,42.70
2023-02-15T17:11:46.169Z,43.16
2023-02-15T17:14:18.946Z,43.27
2023-02-15T17:16:50.687Z,43.72
2023-02-15T17:19:25.742Z,44.39
2023-02-15T17:21:56.624Z,44.42
2023-02-15T17:24:33.387Z,44.40
2023-02-15T17:27:06.361Z,44.70
2023-02-15T17:29:33.770Z,45.14
2023-02-15T17:32:02.727Z,45.15
2023-02-15T17:34:51.322Z,45.66
2023-02-15T17:37:46.625Z,45.45
2023-02-15T17:40:19.195Z,45.61
2023-02-15T17:42:45.919Z,45.97
2023-02-15T17:45:15.099Z,45.38
2023-02-15T17:47:42.550Z,45.71
2023-02-15T17:50:19.490Z,46.24
2023-02-15T17:52:46.253Z,45.93
2023-02-15T17:55:37.756Z,45.79
2023-02-15T17:58:12.925Z,46.32
2023-02-15T18:01:02.438Z,46.17
2023-02-15T18:03:58.751Z,46.23
2023-02-15T18:06:44.550Z,46.23
2023-02-15T18:09:32.284Z,46.63
2023-02-15T18:11:59.036Z,46.90
2023-02-15T18:14:26.462Z,46.47
2023-02-15T18:16:54.744Z,46.89
2023-02-15T18:19:24.305Z,46.78
2023-02-15T18:21:52.829Z,47.54
2023-02-15T18:24:24.193Z,47.17
2023-02-15T18:26:51.990Z,47.18
2023-02-15T18:29:18.932Z,47.50
2023-02-15T18:31:51.326Z,47.77
2023-02-15T18:34:24.033Z,47.62
2023-02-15T18:36:51.772Z,47.71
2023-02-15T18:39:36.317Z,48.28
2023-02-15T18:42:04.848Z,48.31
2023-02-15T18:44:31.658Z,48.45
2023-02-15T18:46:58.272Z,48.75
2023-02-15T18:49:24.970Z,49.40
2023-02-15T18:51:53.131Z,49.52
2023-02-15T18:54:22.846Z,49.57
2023-02-15T18:56:55.471Z,49.57
2023-02-15T18:59:24.591Z,49.95
2023-02-15T19:01:52.301Z,50.06
2023-02-15T19:04:18.987Z,50.42
2023-02-15T19:06:49.059Z,50.43
2023-02-15T19:09:19.902Z,50.61
2023-02-15T19:11:51.736Z,50.61
2023-02-15T19:14:32.540Z,50.58
2023-02-15T19:17:00.606Z,50.61
2023-02-15T19:19:27.933Z,50.85
2023-02-15T19:21:55.394Z,50.81
2023-02-15T19:24:33.576Z,50.64
2023-02-15T19:27:00.395Z,51.41
2023-02-15T19:29:30.311Z,51.60
2023-02-15T19:31:58.102Z,51.87
2023-02-15T19:34:24.991Z,51.98
2023-02-15T19:36:54.792Z,51.89
2023-02-15T19:39:26.111Z,52.25
2023-02-15T19:41:53.232Z,52.02
2023-02-15T19:44:20.626Z,52.54
2023-02-15T19:46:47.417Z,52.55
2023-02-15T19:49:14.078Z,53.12
2023-02-15T19:51:41.146Z,53.24
2023-02-15T19:54:31.532Z,53.60
2023-02-15T19:56:58.303Z,53.40
2023-02-15T19:59:30.938Z,53.21
2023-02-15T20:01:58.212Z,53.31
2023-02-15T20:04:26.022Z,53.40
2023-02-15T20:06:55.774Z,53.82
2023-02-15T20:09:26.505Z,53.83
2023-02-15T20:11:53.728Z,53.94
2023-02-15T20:14:21.033Z,54.27
2023-02-15T20:16:47.876Z,54.12
2023-02-15T20:19:14.608Z,53.70
2023-02-15T20:21:43.818Z,53.63
2023-02-15T20:24:19.290Z,53.26
2023-02-15T20:26:46.333Z,52.87
2023-02-15T20:29:15.200Z,53.01
2023-02-15T20:31:43.096Z,53.18
2023-02-15T20:34:10.655Z,53.10
2023-02-15T20:36:38.747Z,52.94
2023-02-15T20:39:16.585Z,53.56
2023-02-15T20:41:47.730Z,53.61
2023-02-15T20:44:20.684Z,53.66
2023-02-15T20:46:49.199Z,54.33
2023-02-15T20:49:16.161Z,54.62
2023-02-15T20:51:44.368Z,56.04
2023-02-15T20:54:17.774Z,55.06
2023-02-15T20:56:45.763Z,55.16
2023-02-15T20:59:24.740Z,55.22
2023-02-15T21:01:55.428Z,55.01
2023-02-15T21:04:27.233Z,55.35
2023-02-15T21:06:53.958Z,56.01
2023-02-15T21:09:20.571Z,55.67
2023-02-15T21:11:50.252Z,56.36
2023-02-15T21:14:19.487Z,56.34
2023-02-15T21:16:48.360Z,56.13
2023-02-15T21:19:23.586Z,55.42
2023-02-15T21:21:53.225Z,55.92
2023-02-15T21:24:29.036Z,56.09
2023-02-15T21:26:58.273Z,56.88
2023-02-15T21:29:28.013Z,57.32
2023-02-15T21:31:55.200Z,57.47
2023-02-15T21:34:22.200Z,57.06
2023-02-15T21:36:50.594Z,57.06
2023-02-15T21:39:25.913Z,57.43
2023-02-15T21:42:13.207Z,57.47
2023-02-15T21:44:59.194Z,56.58
2023-02-15T21:47:49.030Z,58.20
2023-02-15T21:50:42.645Z,58.09
2023-02-15T21:53:21.172Z,57.67
2023-02-15T21:55:48.667Z,58.52
2023-02-15T21:58:21.070Z,58.43
2023-02-15T22:00:48.389Z,59.08
2023-02-15T22:03:15.206Z,58.23
2023-02-15T22:05:41.871Z,58.79
2023-02-15T22:08:13.317Z,58.14
2023-02-15T22:10:41.237Z,57.87
2023-02-15T22:13:17.235Z,57.19
2023-02-15T22:15:47.084Z,58.11
2023-02-15T22:18:33.849Z,58.88
2023-02-15T22:21:01.991Z,57.91
2023-02-15T22:23:29.080Z,57.35
2023-02-15T22:26:05.162Z,57.96
2023-02-15T22:28:34.594Z,58.32
2023-02-15T22:31:01.866Z,58.21
2023-02-15T22:33:31.643Z,58.21
2023-02-15T22:35:59.249Z,58.58
2023-02-15T22:38:26.248Z,58.34
2023-02-15T22:40:56.815Z,58.34
2023-02-15T22:43:29.413Z,58.21
2023-02-15T22:46:01.825Z,58.39
2023-02-15T22:48:28.755Z,58.46
2023-02-15T22:50:55.412Z,57.29
2023-02-15T22:53:22.650Z,56.81
2023-02-15T22:55:49.891Z,56.50
2023-02-15T22:58:20.617Z,57.26
2023-02-15T23:00:47.447Z,57.30
2023-02-15T23:03:16.833Z,56.38
2023-02-15T23:05:43.854Z,56.88
2023-02-15T23:08:11.385Z,57.62
2023-02-15T23:10:39.319Z,56.99
2023-02-15T23:13:25.970Z,58.18
2023-02-15T23:15:58.727Z,58.33
2023-02-15T23:18:29.503Z,58.10
2023-02-15T23:21:10.106Z,57.53
2023-02-15T23:23:39.981Z,57.66
2023-02-15T23:26:22.905Z,58.05
2023-02-15T23:28:50.446Z,58.01
2023-02-15T23:31:21.857Z,57.61
2023-02-15T23:33:48.986Z,57.61
2023-02-15T23:36:28.091Z,58.10
2023-02-15T23:38:56.609Z,57.58
2023-02-15T23:41:27.450Z,58.67
2023-02-15T23:43:58.137Z,58.79
2023-02-15T23:46:26.759Z,59.29
2023-02-15T23:48:54.801Z,59.27
2023-02-15T23:51:27.345Z,58.42
2023-02-15T23:53:53.987Z,59.00
2023-02-15T23:56:20.673Z,59.46
2023-02-15T23:58:48.141Z,59.84
